Time;durP1;ratioP1;P1;durP2;ratioP2;P2;SDS_P1;SDS_P2;PMS_P1;PMS_P2;Temp;Humidity;BMP_temperature;BMP_pressure;BME280_temperature;BME280_humidity;BME280_pressure;Samples;Min_cycle;Max_cycle;Signal;HPM_P1;HPM_P2
2023/03/25 00:00:13;;;;;;;12.27;1.70;;;;;;;7.17;51.17;99819.28;5024321;28;20127;-68
2023/03/25 00:02:39;;;;;;;9.68;0.95;;;;;;;7.08;51.38;99815.31;5036329;28;20037;-69
2023/03/25 00:05:05;;;;;;;3.72;0.20;;;;;;;6.99;51.99;99818.31;5039040;28;20044;-68
2023/03/25 00:07:31;;;;;;;4.28;1.35;;;;;;;6.86;52.13;99815.38;5038820;28;20036;-68
2023/03/25 00:09:56;;;;;;;3.95;0.63;;;;;;;6.86;51.71;99815.38;5036413;28;20067;-68
2023/03/25 00:12:22;;;;;;;4.28;0.40;;;;;;;7.06;51.41;99811.94;5022596;28;20033;-68
2023/03/25 00:14:53;;;;;;;10.02;0.60;;;;;;;7.09;51.07;99814.44;5037900;28;20074;-67
2023/03/25 00:17:22;;;;;;;4.13;0.60;;;;;;;6.70;52.41;99805.63;5034369;28;20415;-65
2023/03/25 00:19:51;;;;;;;4.80;0.45;;;;;;;6.90;51.59;99811.75;5021827;28;20362;-67
2023/03/25 00:22:18;;;;;;;7.38;0.55;;;;;;;6.64;52.10;99810.22;5034824;28;20087;-66
2023/03/25 00:24:43;;;;;;;5.57;0.35;;;;;;;6.78;51.37;99809.69;5025273;28;20110;-68
2023/03/25 00:27:09;;;;;;;6.65;0.50;;;;;;;6.69;52.01;99814.34;5040514;28;20119;-77
2023/03/25 00:29:34;;;;;;;3.55;0.40;;;;;;;6.32;52.82;99799.38;5026854;28;20032;-73
2023/03/25 00:32:00;;;;;;;5.05;0.88;;;;;;;6.77;51.90;99805.38;5043388;28;20071;-76
2023/03/25 00:34:25;;;;;;;2.95;0.50;;;;;;;6.07;53.79;99800.28;5041201;28;20462;-76
2023/03/25 00:36:51;;;;;;;2.38;0.57;;;;;;;5.95;55.34;99805.97;5035139;28;20516;-75
2023/03/25 00:39:16;;;;;;;4.07;0.43;;;;;;;6.60;54.29;99816.47;5041580;28;20051;-76
2023/03/25 00:41:42;;;;;;;1.95;0.40;;;;;;;6.66;53.92;99800.63;5028548;28;20024;-73
2023/03/25 00:44:11;;;;;;;4.07;1.10;;;;;;;6.45;54.67;99805.78;5039488;28;20118;-74
2023/03/25 00:46:36;;;;;;;8.73;0.68;;;;;;;6.24;55.27;99811.78;5042323;28;20406;-74
2023/03/25 00:49:03;;;;;;;3.95;0.52;;;;;;;6.54;54.39;99804.56;5023918;28;20041;-74
2023/03/25 00:51:30;;;;;;;10.13;1.08;;;;;;;6.53;54.72;99802.00;5030781;28;20697;-73
2023/03/25 00:54:00;;;;;;;7.80;0.70;;;;;;;6.76;53.53;99801.94;5041229;28;20098;-72
2023/03/25 00:56:28;;;;;;;6.43;0.60;;;;;;;6.35;54.70;99799.28;5044995;28;20143;-74
2023/03/25 00:58:54;;;;;;;6.35;0.63;;;;;;;6.19;54.97;99790.34;5028704;28;20601;-74
2023/03/25 01:01:28;;;;;;;7.40;1.33;;;;;;;6.57;54.11;99777.63;5027381;28;20110;-74
2023/03/25 01:03:58;;;;;;;4.13;0.90;;;;;;;6.06;55.38;99785.66;5045349;28;20650;-75
2023/03/25 01:06:31;;;;;;;3.80;0.55;;;;;;;6.50;54.01;99785.66;5032057;28;20051;-73
2023/03/25 01:08:57;;;;;;;5.30;1.20;;;;;;;6.02;55.54;99785.81;5040906;28;20040;-73
2023/03/25 01:11:28;;;;;;;7.60;1.10;;;;;;;6.37;54.86;99789.66;5041701;28;20024;-73
2023/03/25 01:13:55;;;;;;;3.28;1.17;;;;;;;6.32;54.72;99783.81;5040301;28;20048;-75
2023/03/25 01:16:22;;;;;;;9.10;0.60;;;;;;;5.93;56.63;99784.44;5042134;28;20695;-72
2023/03/25 01:18:48;;;;;;;2.47;0.82;;;;;;;6.59;54.47;99789.63;5020120;28;20033;-73
2023/03/25 01:21:14;;;;;;;2.78;0.47;;;;;;;6.58;54.51;99785.34;5042538;28;20032;-74
2023/03/25 01:23:40;;;;;;;5.10;0.73;;;;;;;6.50;54.83;99783.06;5041116;28;20045;-74
2023/03/25 01:26:05;;;;;;;2.70;0.60;;;;;;;6.79;53.79;99783.63;5023648;28;20047;-72
2023/03/25 01:28:31;;;;;;;11.50;0.93;;;;;;;6.06;55.56;99788.25;5043373;28;20716;-74
2023/03/25 01:31:05;;;;;;;10.60;1.27;;;;;;;6.50;53.61;99782.22;5041900;28;20886;-75
2023/03/25 01:33:31;;;;;;;11.40;0.70;;;;;;;6.40;54.62;99776.56;5041281;28;20040;-74
2023/03/25 01:36:01;;;;;;;7.68;0.77;;;;;;;6.55;54.04;99767.31;5027531;28;20454;-74
2023/03/25 01:38:26;;;;;;;13.60;0.93;;;;;;;6.37;54.51;99771.47;5027793;28;20404;-74
2023/03/25 01:40:53;;;;;;;6.13;1.38;;;;;;;6.07;55.24;99769.16;5026875;28;20414;-73
2023/03/25 01:43:19;;;;;;;4.80;0.70;;;;;;;6.67;53.62;99769.41;5022490;28;20146;-75
2023/03/25 01:45:45;;;;;;;8.13;0.60;;;;;;;6.17;55.16;99767.06;5043448;28;20593;-73
2023/03/25 01:48:21;;;;;;;4.97;0.60;;;;;;;6.26;55.77;99773.63;5042986;28;20045;-75
2023/03/25 01:50:55;;;;;;;7.07;0.82;;;;;;;5.78;56.46;99762.50;5025469;28;20549;-74
2023/03/25 01:53:20;;;;;;;6.53;0.50;;;;;;;6.17;55.35;99768.81;5039802;28;20044;-73
2023/03/25 01:55:51;;;;;;;6.57;0.88;;;;;;;5.98;55.66;99766.94;5039365;28;20389;-73
2023/03/25 01:58:19;;;;;;;11.02;0.65;;;;;;;6.34;55.09;99763.81;5039761;28;20045;-72
2023/03/25 02:00:46;;;;;;;13.65;1.02;;;;;;;6.40;55.03;99762.75;5044632;28;20095;-67
2023/03/25 02:03:12;;;;;;;10.68;1.45;;;;;;;6.08;55.60;99750.13;5017904;28;20048;-72
2023/03/25 02:05:45;;;;;;;8.43;0.85;;;;;;;6.15;56.11;99761.09;5039670;28;20036;-75
2023/03/25 02:08:12;;;;;;;7.05;0.68;;;;;;;6.67;55.06;99763.38;5046857;28;20055;-73
2023/03/25 02:10:37;;;;;;;8.30;1.73;;;;;;;6.42;55.69;99766.13;5023123;28;20497;-73
2023/03/25 02:13:05;;;;;;;5.45;1.27;;;;;;;6.26;56.79;99764.13;5040770;28;20083;-73
2023/03/25 02:15:45;;;;;;;5.13;0.73;;;;;;;6.26;56.96;99763.25;5039801;28;20427;-72
2023/03/25 02:18:28;;;;;;;5.75;0.60;;;;;;;5.81;59.09;99769.31;5038197;28;20064;-69
2023/03/25 02:20:56;;;;;;;;;;;;;;;6.40;57.06;99771.38;5038936;28;20048;-70
2023/03/25 02:24:03;;;;;;;9.65;0.57;;;;;;;6.19;57.60;99772.19;5037514;28;20899;-69
2023/03/25 02:27:12;;;;;;;5.40;1.23;;;;;;;5.60;59.92;99771.81;4982975;28;20045;-69
2023/03/25 02:30:13;;;;;;;12.02;1.08;;;;;;;6.24;58.05;99765.09;4982358;28;20045;-70
2023/03/25 02:32:48;;;;;;;9.05;1.30;;;;;;;6.60;57.00;99762.78;5020454;28;20374;-68
2023/03/25 02:35:22;;;;;;;8.18;1.30;;;;;;;6.53;57.50;99776.06;5039443;28;20093;-68
2023/03/25 02:38:00;;;;;;;9.23;0.95;;;;;;;6.27;57.95;99770.97;5039068;28;20114;-68
2023/03/25 02:40:34;;;;;;;8.73;1.08;;;;;;;6.17;58.49;99769.66;5020265;28;20178;-70
2023/03/25 02:43:04;;;;;;;4.57;0.50;;;;;;;5.48;60.41;99769.69;5041034;28;20049;-71
2023/03/25 02:45:35;;;;;;;7.47;0.87;;;;;;;5.54;60.24;99761.66;5022571;28;20106;-69
2023/03/25 02:48:07;;;;;;;7.65;1.33;;;;;;;5.74;58.98;99765.28;5041187;28;20311;-69
2023/03/25 02:50:35;;;;;;;;;;;;;;;5.73;59.14;99758.41;5023195;28;20040;-69
2023/03/25 02:53:07;;;;;;;4.32;0.35;;;;;;;5.34;59.99;99751.19;5026089;28;19927;-75
2023/03/25 02:55:34;;;;;;;2.30;1.05;;;;;;;5.20;60.22;99757.69;5031353;28;20035;-75
2023/03/25 02:58:03;;;;;;;11.68;1.15;;;;;;;5.44;59.78;99748.22;5055721;28;20113;-75
2023/03/25 03:00:30;;;;;;;7.05;0.98;;;;;;;5.74;59.05;99749.72;5039719;28;20039;-76
2023/03/25 03:02:59;;;;;;;5.35;1.05;;;;;;;5.33;60.53;99752.09;5059024;28;20049;-76
2023/03/25 03:05:28;;;;;;;2.80;0.30;;;;;;;5.17;61.13;99754.41;5042326;28;20634;-75
2023/03/25 03:08:23;;;;;;;4.07;0.63;;;;;;;5.43;60.18;99758.63;5052542;28;20048;-75
2023/03/25 03:11:14;;;;;;;4.32;0.80;;;;;;;5.04;61.60;99749.63;5039029;28;20047;-76
2023/03/25 03:13:51;;;;;;;8.35;0.40;;;;;;;5.08;61.46;99749.50;5041438;28;20067;-70
2023/03/25 03:16:41;;;;;;;6.63;0.30;;;;;;;4.94;61.54;99752.59;5044447;28;20025;-71
2023/03/25 03:19:20;;;;;;;1.30;0.10;;;;;;;4.96;60.40;99748.19;5038743;28;20200;-72
2023/03/25 03:22:07;;;;;;;3.03;0.10;;;;;;;4.94;60.56;99744.81;5040801;28;20040;-72
2023/03/25 03:24:42;;;;;;;6.75;0.40;;;;;;;5.33;59.52;99754.69;5035920;28;20143;-74
2023/03/25 03:27:15;;;;;;;8.40;0.40;;;;;;;5.86;58.51;99744.06;5039837;28;20036;-73
2023/03/25 03:29:48;;;;;;;3.10;0.82;;;;;;;5.62;59.58;99748.44;5041394;28;20039;-75
2023/03/25 03:32:21;;;;;;;8.93;0.90;;;;;;;5.84;58.69;99751.91;5035865;28;20036;-73
2023/03/25 03:34:51;;;;;;;7.40;0.80;;;;;;;5.85;59.02;99747.56;5039581;28;20415;-74
2023/03/25 03:37:23;;;;;;;8.98;0.95;;;;;;;5.83;59.17;99746.78;5036732;28;20092;-73
2023/03/25 03:39:49;;;;;;;6.43;0.75;;;;;;;6.13;58.09;99736.09;5023468;28;20474;-72
2023/03/25 03:42:59;;;;;;;7.53;0.60;;;;;;;5.83;58.38;99731.22;5036941;28;20823;-71
2023/03/25 03:45:33;;;;;;;2.83;0.80;;;;;;;5.67;59.67;99743.91;4990874;28;20048;-70
2023/03/25 03:48:02;;;;;;;5.13;0.60;;;;;;;5.80;59.32;99749.50;5022064;28;20099;-69
2023/03/25 03:50:31;;;;;;;10.25;1.45;;;;;;;5.14;61.61;99754.47;5037455;28;20043;-67
2023/03/25 03:53:11;;;;;;;7.60;1.08;;;;;;;5.49;60.63;99740.25;5036686;28;20040;-67
2023/03/25 03:55:53;;;;;;;5.72;1.15;;;;;;;5.51;60.46;99742.81;5035024;28;20037;-72
2023/03/25 03:58:29;;;;;;;6.18;1.83;;;;;;;5.38;60.82;99747.59;5037466;28;20536;-73
2023/03/25 04:01:02;;;;;;;11.40;1.30;;;;;;;5.37;61.02;99744.16;5038205;28;20037;-72
2023/03/25 04:03:58;;;;;;;7.22;1.20;;;;;;;5.66;60.07;99742.25;5036289;28;20789;-74
2023/03/25 04:06:34;;;;;;;8.50;1.33;;;;;;;5.14;61.37;99744.97;5042308;28;20511;-74
2023/03/25 04:09:33;;;;;;;7.05;1.25;;;;;;;5.67;60.26;99744.75;5041029;28;20053;-73
2023/03/25 04:12:09;;;;;;;11.93;1.17;;;;;;;5.59;59.94;99745.94;5032182;28;20056;-75
2023/03/25 04:14:38;;;;;;;11.05;2.53;;;;;;;5.66;59.32;99735.31;5023159;28;21562;-74
2023/03/25 04:17:04;;;;;;;11.65;1.35;;;;;;;5.41;60.44;99742.28;5010939;28;20040;-72
2023/03/25 04:19:32;;;;;;;11.32;1.60;;;;;;;5.56;60.05;99744.31;5043296;28;20121;-73
2023/03/25 04:22:00;;;;;;;12.13;2.70;;;;;;;5.61;60.31;99744.13;5045834;28;20039;-72
2023/03/25 04:24:30;;;;;;;10.05;1.90;;;;;;;5.50;60.37;99743.69;5036765;28;20045;-72
2023/03/25 04:27:02;;;;;;;18.65;2.38;;;;;;;5.35;60.69;99758.91;5044672;28;20048;-68
2023/03/25 04:29:31;;;;;;;18.20;2.22;;;;;;;5.40;60.89;99745.78;5041640;28;20048;-68
2023/03/25 04:31:57;;;;;;;11.80;1.70;;;;;;;5.23;60.79;99738.59;5027857;28;21041;-69
2023/03/25 04:34:23;;;;;;;15.75;2.10;;;;;;;5.59;60.00;99746.81;5038091;28;20145;-67
2023/03/25 04:36:49;;;;;;;12.20;2.20;;;;;;;5.87;59.55;99740.56;5044389;28;20041;-67
2023/03/25 04:39:21;;;;;;;11.50;1.92;;;;;;;5.93;59.08;99740.34;5041563;28;20048;-71
2023/03/25 04:41:48;;;;;;;5.82;1.58;;;;;;;5.82;59.17;99743.34;5036296;28;20507;-76
2023/03/25 04:44:14;;;;;;;15.35;2.25;;;;;;;6.08;58.90;99741.47;5041388;28;20525;-75
2023/03/25 04:46:40;;;;;;;15.02;2.70;;;;;;;5.29;60.27;99734.97;5045600;28;20024;-78
2023/03/25 04:49:12;;;;;;;15.68;1.50;;;;;;;5.78;59.65;99746.09;5057315;28;20047;-80
2023/03/25 04:51:40;;;;;;;12.10;2.03;;;;;;;5.79;59.09;99748.66;5046769;28;20106;-67
2023/03/25 04:54:06;;;;;;;10.07;1.88;;;;;;;5.58;59.79;99747.69;5041048;28;20111;-69
2023/03/25 04:56:32;;;;;;;6.82;1.63;;;;;;;5.69;59.26;99742.13;5042301;28;20150;-69
2023/03/25 04:58:58;;;;;;;17.60;2.88;;;;;;;5.02;61.54;99748.00;5025238;28;20048;-69
2023/03/25 05:01:29;;;;;;;11.82;1.75;;;;;;;6.05;58.55;99737.25;5040536;28;20341;-70
2023/03/25 05:04:04;;;;;;;9.70;1.73;;;;;;;4.71;61.37;99730.88;5041748;28;20286;-69
2023/03/25 05:06:34;;;;;;;14.80;1.90;;;;;;;5.52;59.89;99739.31;5041992;28;20039;-71
2023/03/25 05:09:03;;;;;;;14.48;1.98;;;;;;;5.29;60.35;99742.75;5035723;28;20044;-75
2023/03/25 05:11:30;;;;;;;13.43;1.52;;;;;;;5.41;59.71;99747.47;5044208;28;20064;-74
2023/03/25 05:13:55;;;;;;;10.27;2.05;;;;;;;5.32;60.38;99742.63;5039129;28;20095;-72
2023/03/25 05:16:21;;;;;;;8.15;1.65;;;;;;;4.42;62.74;99752.56;5040784;28;21993;-72
2023/03/25 05:18:47;;;;;;;22.75;2.92;;;;;;;4.88;61.57;99747.63;5041713;28;20032;-71
2023/03/25 05:21:13;;;;;;;7.97;1.08;;;;;;;5.04;61.25;99749.63;5043298;28;20328;-71
2023/03/25 05:23:40;;;;;;;9.32;1.60;;;;;;;5.16;60.79;99743.16;5036955;28;20125;-71
2023/03/25 05:26:07;;;;;;;8.65;1.95;;;;;;;4.56;62.80;99744.34;5042632;28;20036;-71
2023/03/25 05:28:34;;;;;;;8.05;1.58;;;;;;;4.53;62.80;99741.88;5037054;28;20036;-71
2023/03/25 05:31:00;;;;;;;12.85;1.77;;;;;;;5.01;61.33;99746.28;5040943;28;20041;-71
2023/03/25 05:33:26;;;;;;;11.85;2.42;;;;;;;5.41;59.83;99743.16;5039691;28;20032;-72
2023/03/25 05:35:51;;;;;;;11.15;1.27;;;;;;;4.87;61.29;99748.50;5042026;28;23959;-71
2023/03/25 05:38:17;;;;;;;8.10;1.70;;;;;;;5.13;61.30;99743.28;5041253;28;20036;-74
2023/03/25 05:40:47;;;;;;;11.15;1.60;;;;;;;5.71;59.17;99752.44;5039530;28;21394;-71
2023/03/25 05:43:21;;;;;;;9.18;1.70;;;;;;;5.37;60.13;99743.28;5041239;28;20066;-71
2023/03/25 05:45:47;;;;;;;10.00;1.35;;;;;;;5.43;59.90;99748.25;5043031;28;20094;-71
2023/03/25 05:48:13;;;;;;;7.55;1.23;;;;;;;4.66;61.21;99761.25;5046479;28;20044;-71
2023/03/25 05:50:41;;;;;;;7.43;1.48;;;;;;;5.11;60.04;99758.03;5044876;28;20047;-71
2023/03/25 05:53:11;;;;;;;8.23;1.42;;;;;;;4.35;62.37;99757.09;5039322;28;20056;-71
2023/03/25 05:55:37;;;;;;;8.60;1.00;;;;;;;5.37;58.97;99759.69;5038141;28;20043;-71
2023/03/25 05:58:03;;;;;;;7.53;1.02;;;;;;;4.94;60.35;99763.78;5040576;28;20044;-72
2023/03/25 06:00:29;;;;;;;4.70;1.00;;;;;;;4.74;61.36;99761.00;5018050;28;20045;-72
2023/03/25 06:02:57;;;;;;;6.65;1.13;;;;;;;5.32;59.46;99763.34;5038610;28;20131;-72
2023/03/25 06:05:24;;;;;;;12.30;1.30;;;;;;;5.14;60.23;99764.84;5043923;28;20076;-70
2023/03/25 06:07:54;;;;;;;4.05;1.25;;;;;;;5.22;60.13;99768.84;5037963;28;20411;-72
2023/03/25 06:10:21;;;;;;;12.68;1.92;;;;;;;5.45;59.97;99764.59;5040110;28;20188;-71
2023/03/25 06:12:48;;;;;;;11.07;1.17;;;;;;;4.90;61.07;99769.13;5036185;28;20041;-71
2023/03/25 06:15:32;;;;;;;14.73;1.00;;;;;;;5.06;61.28;99767.72;5042428;28;20029;-70
2023/03/25 06:17:58;;;;;;;17.77;2.47;;;;;;;5.14;60.63;99763.09;5023806;28;20041;-71
2023/03/25 06:20:24;;;;;;;6.50;1.70;;;;;;;5.59;59.96;99770.13;5041903;28;20036;-70
2023/03/25 06:22:50;;;;;;;6.95;1.63;;;;;;;6.03;58.43;99761.56;5035836;28;20130;-71
2023/03/25 06:25:19;;;;;;;9.13;1.48;;;;;;;5.14;61.09;99776.03;5040948;28;20039;-71
2023/03/25 06:27:48;;;;;;;16.35;2.42;;;;;;;5.08;60.60;99771.09;5035163;28;20762;-71
2023/03/25 06:30:19;;;;;;;7.63;1.67;;;;;;;4.90;61.91;99763.94;5041010;28;20094;-72
2023/03/25 06:32:49;;;;;;;11.00;2.28;;;;;;;5.40;60.30;99766.50;5036897;28;20103;-71
2023/03/25 06:35:18;;;;;;;11.10;1.95;;;;;;;5.65;59.42;99767.28;5040516;28;20142;-72
2023/03/25 06:37:46;;;;;;;10.07;1.35;;;;;;;5.91;57.91;99768.06;5038256;28;20646;-70
2023/03/25 06:40:16;;;;;;;5.03;1.20;;;;;;;5.86;58.75;99765.66;5025698;28;20025;-74
2023/03/25 06:42:42;;;;;;;13.02;1.70;;;;;;;6.15;57.60;99770.59;5023906;28;20102;-73
2023/03/25 06:45:29;;;;;;;3.88;0.93;;;;;;;5.58;59.09;99760.66;5015532;28;20037;-75
2023/03/25 06:48:04;;;;;;;11.57;1.15;;;;;;;5.52;59.29;99760.03;5020767;28;20044;-77
2023/03/25 06:50:30;;;;;;;12.45;1.73;;;;;;;5.89;58.09;99764.69;5026752;28;20095;-75
2023/03/25 06:52:57;;;;;;;7.13;1.40;;;;;;;6.08;57.53;99763.09;5040061;28;20126;-71
2023/03/25 06:55:23;;;;;;;7.55;1.58;;;;;;;5.91;58.10;99765.47;5039565;28;20039;-69
2023/03/25 06:57:48;;;;;;;11.02;1.33;;;;;;;5.53;58.93;99766.94;5035239;28;20052;-71
2023/03/25 07:00:19;;;;;;;6.80;1.98;;;;;;;6.05;57.96;99758.00;5041912;28;20036;-72
2023/03/25 07:02:45;;;;;;;6.05;1.33;;;;;;;6.11;57.87;99771.66;5037907;28;20538;-71
2023/03/25 07:05:10;;;;;;;9.82;1.55;;;;;;;6.09;57.84;99767.34;5042328;28;20035;-73
2023/03/25 07:07:36;;;;;;;7.15;1.05;;;;;;;5.86;58.13;99764.81;5037350;28;20369;-72
2023/03/25 07:10:03;;;;;;;12.02;1.98;;;;;;;5.55;59.21;99760.78;5040677;28;20584;-72
2023/03/25 07:12:28;;;;;;;13.57;1.17;;;;;;;5.93;58.55;99763.69;5037729;28;20522;-71
2023/03/25 07:14:56;;;;;;;12.68;1.88;;;;;;;6.14;57.88;99763.75;5008527;28;20052;-68
2023/03/25 07:17:24;;;;;;;10.20;1.63;;;;;;;6.33;57.81;99762.16;5037859;28;20036;-68
2023/03/25 07:19:50;;;;;;;6.88;1.50;;;;;;;6.30;57.67;99759.66;5037563;28;20029;-70
2023/03/25 07:22:16;;;;;;;9.00;1.63;;;;;;;6.97;55.26;99763.81;5037167;28;20042;-70
2023/03/25 07:24:42;;;;;;;8.25;1.52;;;;;;;6.03;58.00;99759.81;5036947;28;20067;-71
2023/03/25 07:27:11;;;;;;;17.83;1.92;;;;;;;6.56;57.20;99771.59;5039270;28;20113;-71
2023/03/25 07:29:37;;;;;;;10.82;1.42;;;;;;;5.80;58.48;99768.47;5019885;28;20534;-68
2023/03/25 07:32:03;;;;;;;21.42;1.52;;;;;;;6.20;57.11;99769.53;5040458;28;20136;-65
2023/03/25 07:34:31;;;;;;;11.93;1.58;;;;;;;6.46;56.84;99776.31;5039248;28;20050;-68
2023/03/25 07:36:58;;;;;;;10.13;1.23;;;;;;;5.86;58.06;99767.41;5021530;28;20032;-70
2023/03/25 07:39:24;;;;;;;13.20;2.08;;;;;;;6.13;57.43;99786.25;5034435;28;20124;-72
2023/03/25 07:41:50;;;;;;;8.25;1.67;;;;;;;6.04;57.78;99771.88;5037795;28;20087;-70
2023/03/25 07:44:39;;;;;;;19.88;2.13;;;;;;;6.43;57.35;99771.25;5028343;28;20053;-71
2023/03/25 07:47:07;;;;;;;6.25;0.70;;;;;;;6.34;57.42;99776.81;5040075;28;20033;-72
2023/03/25 07:49:33;;;;;;;14.43;1.65;;;;;;;5.66;59.34;99770.75;5018883;28;20037;-71
2023/03/25 07:51:59;;;;;;;15.75;1.73;;;;;;;6.56;56.72;99770.75;5040068;28;20054;-72
2023/03/25 07:54:25;;;;;;;10.98;1.35;;;;;;;6.61;56.45;99769.66;5017949;28;20687;-70
2023/03/25 07:56:53;;;;;;;10.25;1.10;;;;;;;6.34;57.62;99776.81;5039208;28;20028;-70
2023/03/25 07:59:19;;;;;;;10.77;1.52;;;;;;;6.02;58.00;99784.06;5022650;28;20044;-67
2023/03/25 08:01:45;;;;;;;16.13;1.25;;;;;;;5.83;59.32;99788.25;5038077;28;20025;-67
2023/03/25 08:04:12;;;;;;;12.10;2.25;;;;;;;5.30;60.77;99775.50;5037491;28;20044;-66
2023/03/25 08:06:39;;;;;;;11.82;1.23;;;;;;;4.99;60.95;99787.78;5017441;28;20467;-66
2023/03/25 08:09:04;;;;;;;10.10;1.70;;;;;;;5.02;60.35;99789.44;5023484;28;20487;-70
2023/03/25 08:11:30;;;;;;;5.18;1.15;;;;;;;5.29;59.62;99789.38;5040144;28;20112;-68
2023/03/25 08:13:55;;;;;;;11.27;1.45;;;;;;;5.29;59.24;99791.97;5036584;28;20055;-67
2023/03/25 08:16:20;;;;;;;7.22;0.90;;;;;;;5.88;58.02;99791.50;5037113;28;20037;-67
2023/03/25 08:18:46;;;;;;;11.30;1.67;;;;;;;5.65;57.83;99792.38;5038600;28;20040;-68
2023/03/25 08:21:12;;;;;;;15.77;1.17;;;;;;;5.99;57.22;99788.53;5023635;28;20599;-68
2023/03/25 08:23:38;;;;;;;15.68;1.05;;;;;;;5.83;56.88;99796.88;5036023;28;20079;-68
2023/03/25 08:26:04;;;;;;;9.27;1.20;;;;;;;6.57;55.51;99793.19;5037722;28;20619;-68
2023/03/25 08:28:33;;;;;;;11.55;1.77;;;;;;;7.03;55.14;99796.50;5045225;28;20041;-70
2023/03/25 08:31:04;;;;;;;10.30;0.52;;;;;;;7.42;52.32;99798.28;5043736;28;21421;-67
2023/03/25 08:33:33;;;;;;;7.28;0.52;;;;;;;7.77;52.36;99794.13;5044337;28;20041;-68
2023/03/25 08:36:00;;;;;;;9.27;1.42;;;;;;;8.04;52.81;99792.00;5040382;28;20158;-68
2023/03/25 08:38:30;;;;;;;6.53;0.90;;;;;;;9.65;48.34;99784.91;5042253;28;20037;-69
2023/03/25 08:40:59;;;;;;;9.68;1.20;;;;;;;9.74;47.18;99777.44;5041339;28;20036;-68
2023/03/25 08:43:25;;;;;;;10.07;1.13;;;;;;;10.37;45.67;99778.38;5042932;28;20069;-68
2023/03/25 08:45:51;;;;;;;10.82;1.52;;;;;;;9.62;47.96;99790.31;5039699;28;20049;-67
2023/03/25 08:48:17;;;;;;;12.95;1.05;;;;;;;7.88;51.71;99791.88;5014849;28;20040;-67
2023/03/25 08:50:43;;;;;;;9.98;0.85;;;;;;;8.53;50.60;99789.69;5028088;28;21011;-70
2023/03/25 08:53:09;;;;;;;12.57;1.35;;;;;;;8.04;52.10;99781.59;5035833;28;20044;-68
2023/03/25 08:55:36;;;;;;;7.10;1.25;;;;;;;7.34;53.86;99785.63;5022274;28;20086;-68
2023/03/25 08:58:03;;;;;;;5.38;1.20;;;;;;;5.87;57.67;99797.63;5020202;28;20040;-67
2023/03/25 09:00:29;;;;;;;10.68;1.25;;;;;;;6.20;56.24;99785.09;5022248;28;20072;-67
2023/03/25 09:02:57;;;;;;;6.22;1.35;;;;;;;6.60;55.78;99793.94;5006587;28;20052;-67
2023/03/25 09:05:23;;;;;;;9.68;0.75;;;;;;;6.78;55.07;99792.34;5019771;28;20451;-67
2023/03/25 09:07:49;;;;;;;6.82;0.68;;;;;;;6.72;54.01;99792.56;5027860;28;20044;-67
2023/03/25 09:10:15;;;;;;;6.63;1.05;;;;;;;5.71;55.08;99793.91;5022657;28;20118;-70
2023/03/25 09:12:41;;;;;;;3.70;0.43;;;;;;;6.36;53.65;99785.38;5038487;28;20455;-69
2023/03/25 09:15:10;;;;;;;5.82;0.73;;;;;;;6.63;53.77;99803.34;5030251;28;20036;-68
2023/03/25 09:17:36;;;;;;;1.48;0.60;;;;;;;6.59;53.30;99801.78;5032112;28;20033;-71
2023/03/25 09:20:02;;;;;;;3.25;0.20;;;;;;;6.30;53.89;99806.38;5019597;28;20107;-68
2023/03/25 09:22:28;;;;;;;7.45;0.60;;;;;;;5.83;54.75;99802.06;5026432;28;20490;-68
2023/03/25 09:24:53;;;;;;;6.40;1.10;;;;;;;5.92;54.79;99819.03;5041956;28;20040;-68
2023/03/25 09:27:19;;;;;;;3.10;0.32;;;;;;;5.98;54.93;99808.44;5040241;28;20473;-68
2023/03/25 09:29:45;;;;;;;5.25;0.63;;;;;;;6.07;54.95;99810.66;5041353;28;20473;-68
2023/03/25 09:32:12;;;;;;;8.32;0.50;;;;;;;6.28;55.39;99809.06;5030255;28;20440;-69
2023/03/25 09:34:38;;;;;;;5.93;0.65;;;;;;;7.60;52.34;99807.91;5014829;28;20025;-68
2023/03/25 09:37:04;;;;;;;7.97;0.43;;;;;;;8.40;50.75;99813.78;5018236;28;20389;-66
2023/03/25 09:39:30;;;;;;;4.00;0.73;;;;;;;6.86;53.13;99803.25;5043827;28;20510;-68
2023/03/25 09:42:22;;;;;;;9.57;0.65;;;;;;;6.94;52.93;99808.13;5043585;28;20044;-68
2023/03/25 09:45:04;;;;;;;7.90;1.08;;;;;;;6.47;54.82;99801.38;5028156;28;20800;-68
2023/03/25 09:47:32;;;;;;;5.32;0.55;;;;;;;6.50;55.35;99813.38;5041571;28;20060;-66
2023/03/25 09:50:11;;;;;;;14.10;0.50;;;;;;;6.37;56.13;99818.19;5030540;28;20033;-66
2023/03/25 09:52:42;;;;;;;8.23;0.40;;;;;;;6.63;56.25;99817.16;5042753;28;20068;-67
2023/03/25 09:55:13;;;;;;;5.75;0.60;;;;;;;6.30;56.47;99821.94;5045009;28;20035;-66
2023/03/25 09:57:53;;;;;;;10.73;0.77;;;;;;;6.20;57.22;99820.59;5032938;28;20836;-68
2023/03/25 10:00:23;;;;;;;6.50;1.10;;;;;;;6.37;56.89;99823.38;5043351;28;20041;-66
2023/03/25 10:03:13;;;;;;;10.07;1.08;;;;;;;6.71;56.74;99822.06;5039980;28;20070;-68
2023/03/25 10:06:03;;;;;;;6.95;0.68;;;;;;;6.34;57.16;99826.13;5031095;28;20025;-67
2023/03/25 10:08:34;;;;;;;4.63;0.68;;;;;;;5.84;58.00;99813.31;5012039;28;20137;-68
2023/03/25 10:11:36;;;;;;;6.80;1.80;;;;;;;6.76;56.38;99822.72;5028570;28;20046;-66
2023/03/25 10:14:10;;;;;;;6.72;0.50;;;;;;;6.62;56.60;99825.88;5010381;28;20374;-66
2023/03/25 10:16:42;;;;;;;8.15;0.70;;;;;;;6.45;56.52;99829.13;5019567;28;20029;-67
2023/03/25 10:19:34;;;;;;;9.65;1.35;;;;;;;7.10;55.62;99829.09;5017190;28;20049;-69
2023/03/25 10:22:10;;;;;;;9.63;0.82;;;;;;;7.03;55.09;99823.31;5021741;28;20036;-66
2023/03/25 10:25:08;;;;;;;8.45;1.48;;;;;;;6.84;55.15;99823.25;5018451;28;20040;-67
2023/03/25 10:27:43;;;;;;;8.60;1.15;;;;;;;7.64;53.93;99813.81;5017483;28;20047;-67
2023/03/25 10:30:15;;;;;;;10.13;1.20;;;;;;;7.33;53.66;99821.19;5040737;28;20086;-67
2023/03/25 10:32:51;;;;;;;9.65;0.75;;;;;;;7.66;52.90;99815.41;5030462;28;20049;-68
2023/03/25 10:35:41;;;;;;;8.82;0.65;;;;;;;7.27;53.62;99807.59;5004714;28;20086;-68
2023/03/25 10:38:17;;;;;;;10.70;1.13;;;;;;;6.93;54.83;99810.78;5020506;28;20565;-67
2023/03/25 10:40:48;;;;;;;5.43;0.95;;;;;;;7.43;53.51;99820.78;5021721;28;20139;-68
2023/03/25 10:43:41;;;;;;;6.82;0.73;;;;;;;6.53;56.19;99825.38;5023615;28;20110;-66
2023/03/25 10:46:49;;;;;;;2.70;0.40;;;;;;;6.82;56.78;99819.00;5028265;28;20045;-68
2023/03/25 10:49:28;;;;;;;6.90;0.30;;;;;;;6.07;56.34;99813.25;5019165;28;20048;-68
2023/03/25 10:51:57;;;;;;;4.82;0.93;;;;;;;6.03;56.41;99801.31;5028748;28;20245;-68
2023/03/25 10:54:27;;;;;;;5.00;0.63;;;;;;;5.60;58.11;99815.88;5031318;28;20040;-67
2023/03/25 10:56:59;;;;;;;8.05;0.88;;;;;;;6.15;57.41;99825.09;5019762;28;20036;-68
2023/03/25 10:59:36;;;;;;;2.42;0.68;;;;;;;7.16;56.37;99828.84;5002258;28;20169;-66
2023/03/25 11:02:18;;;;;;;5.97;0.50;;;;;;;9.16;52.38;99809.19;5019122;28;20047;-67
2023/03/25 11:04:46;;;;;;;5.32;1.52;;;;;;;10.81;51.40;99814.19;5021688;28;20403;-66
2023/03/25 11:07:22;;;;;;;5.10;0.63;;;;;;;10.35;49.34;99814.22;5015932;28;20040;-67
2023/03/25 11:09:50;;;;;;;4.28;0.68;;;;;;;9.26;48.61;99826.06;5022518;28;20042;-68
2023/03/25 11:12:20;;;;;;;4.10;0.45;;;;;;;8.09;49.52;99823.91;5021457;28;20442;-66
2023/03/25 11:14:54;;;;;;;3.60;0.60;;;;;;;6.76;53.29;99825.31;5046535;28;20055;-67
2023/03/25 11:17:24;;;;;;;5.07;0.65;;;;;;;6.29;54.13;99830.66;5043342;28;20044;-65
2023/03/25 11:20:00;;;;;;;5.60;0.40;;;;;;;5.90;57.20;99849.34;5046178;28;20037;-68
2023/03/25 11:22:28;;;;;;;6.15;0.75;;;;;;;5.41;58.57;99840.75;5043390;28;20454;-67
2023/03/25 11:25:10;;;;;;;3.45;0.40;;;;;;;4.93;60.72;99841.53;5044381;28;20060;-66
2023/03/25 11:27:50;;;;;;;4.30;0.68;;;;;;;5.62;58.78;99836.56;5039780;28;20654;-68
2023/03/25 11:30:19;;;;;;;4.07;0.50;;;;;;;6.12;57.66;99828.66;5042784;28;20219;-67
2023/03/25 11:33:05;;;;;;;0.90;0.13;;;;;;;6.09;57.00;99829.63;5011349;28;20093;-66
2023/03/25 11:35:36;;;;;;;7.20;0.68;;;;;;;7.53;53.56;99829.84;5033750;28;20497;-66
2023/03/25 11:38:17;;;;;;;3.35;0.60;;;;;;;7.68;52.74;99826.59;5028734;28;20037;-66
2023/03/25 11:40:55;;;;;;;4.32;1.35;;;;;;;8.12;52.64;99826.34;5048282;28;20032;-66
2023/03/25 11:43:35;;;;;;;4.13;0.30;;;;;;;8.05;52.11;99824.94;5029142;28;20624;-66
2023/03/25 11:46:16;;;;;;;7.40;0.65;;;;;;;8.65;50.75;99823.84;5014248;28;20032;-67
2023/03/25 11:48:43;;;;;;;2.97;0.30;;;;;;;8.40;51.09;99814.63;5042642;28;20148;-67
2023/03/25 11:51:13;;;;;;;7.63;1.48;;;;;;;7.86;52.37;99826.69;5044619;28;20527;-66
2023/03/25 11:53:45;;;;;;;7.57;0.77;;;;;;;7.91;52.84;99827.31;5026219;28;20082;-68
2023/03/25 11:56:16;;;;;;;9.05;0.63;;;;;;;7.53;54.24;99822.91;5041899;28;20048;-66